Time;durP1;ratioP1;P1;durP2;ratioP2;P2;SDS_P1;SDS_P2;PMS_P1;PMS_P2;Temp;Humidity;BMP_temperature;BMP_pressure;BME280_temperature;BME280_humidity;BME280_pressure;Samples;Min_cycle;Max_cycle;Signal;HPM_P1;HPM_P2
2021/11/03 00:01:19;;;;;;;11.38;7.82;;;;;;;7.97;85.72;100015.03;4994071;28;20093;-47
2021/11/03 00:03:48;;;;;;;13.68;8.40;;;;;;;7.93;85.78;100012.03;4994207;28;20058;-49
2021/11/03 00:06:18;;;;;;;15.80;8.20;;;;;;;7.92;85.66;100013.13;4993700;28;20106;-50
2021/11/03 00:08:47;;;;;;;11.57;8.02;;;;;;;7.92;86.12;100009.59;5008617;28;20050;-48
2021/11/03 00:11:14;;;;;;;12.70;8.77;;;;;;;7.89;85.39;100011.78;5009336;28;20053;-52
2021/11/03 00:13:43;;;;;;;13.10;7.80;;;;;;;7.86;85.00;100003.34;5008523;28;20157;-52
2021/11/03 00:16:11;;;;;;;12.25;8.07;;;;;;;7.82;84.94;100015.84;4993742;28;20054;-49
2021/11/03 00:18:38;;;;;;;13.18;9.32;;;;;;;7.76;85.47;100016.91;4994007;28;20053;-50
2021/11/03 00:21:07;;;;;;;13.98;8.77;;;;;;;7.75;85.97;100020.72;4993241;28;20038;-50
2021/11/03 00:23:35;;;;;;;12.85;8.68;;;;;;;7.75;85.17;100015.28;4993782;28;20449;-50
2021/11/03 00:26:04;;;;;;;11.68;8.05;;;;;;;7.71;84.95;100014.19;4992410;28;20062;-49
2021/11/03 00:28:32;;;;;;;12.48;8.15;;;;;;;7.65;84.54;100014.19;4993128;28;20552;-51
2021/11/03 00:31:00;;;;;;;12.57;8.05;;;;;;;7.57;84.63;100014.69;5008484;28;20046;-50
2021/11/03 00:33:29;;;;;;;14.32;9.05;;;;;;;7.56;85.67;100010.38;4993132;28;20046;-48
2021/11/03 00:35:58;;;;;;;13.13;8.13;;;;;;;7.59;85.32;100012.53;4992029;28;20050;-49
2021/11/03 00:38:26;;;;;;;13.73;7.82;;;;;;;7.64;85.15;100014.44;4993298;28;20073;-49
2021/11/03 00:40:54;;;;;;;13.20;7.85;;;;;;;7.64;85.49;100009.81;4992230;28;20044;-50
2021/11/03 00:43:22;;;;;;;10.88;7.70;;;;;;;7.65;85.06;100010.66;4992688;28;20053;-51
2021/11/03 00:45:51;;;;;;;11.27;7.80;;;;;;;7.63;84.97;100005.50;4991662;28;20050;-49
2021/11/03 00:48:19;;;;;;;11.30;7.18;;;;;;;7.60;84.69;100008.75;5008174;28;20044;-48
2021/11/03 00:50:48;;;;;;;11.32;7.68;;;;;;;7.62;84.74;100008.47;4992819;28;20042;-50
2021/11/03 00:53:17;;;;;;;12.35;8.02;;;;;;;7.54;83.78;100007.09;4991862;28;20050;-50
2021/11/03 00:55:45;;;;;;;12.63;7.38;;;;;;;7.45;83.44;100008.69;5008101;28;20038;-50
2021/11/03 00:58:13;;;;;;;11.70;8.25;;;;;;;7.41;84.78;100016.56;4991874;28;20034;-49
2021/11/03 01:00:43;;;;;;;11.57;8.18;;;;;;;7.45;84.82;100011.41;4991543;28;20053;-47
2021/11/03 01:03:11;;;;;;;14.07;7.55;;;;;;;7.50;85.09;100010.63;4991896;28;20125;-50
2021/11/03 01:05:40;;;;;;;11.95;7.57;;;;;;;7.53;84.95;100010.06;4990314;28;20071;-50
2021/11/03 01:08:10;;;;;;;10.75;7.13;;;;;;;7.54;85.52;100009.81;4993035;28;20034;-50
2021/11/03 01:10:40;;;;;;;11.65;7.75;;;;;;;7.57;85.91;100013.88;4992566;28;20050;-50
2021/11/03 01:13:08;;;;;;;12.60;7.88;;;;;;;7.54;85.37;99998.97;4978026;28;20818;-51
2021/11/03 01:15:38;;;;;;;12.20;7.53;;;;;;;7.53;85.70;100007.34;4991048;28;20065;-49
2021/11/03 01:18:07;;;;;;;10.40;7.15;;;;;;;7.49;84.48;100000.88;4992772;28;20054;-49
2021/11/03 01:20:36;;;;;;;10.57;7.40;;;;;;;7.41;84.46;99999.50;4992474;28;20092;-50
2021/11/03 01:23:05;;;;;;;11.15;7.40;;;;;;;7.36;84.56;100002.16;4991497;28;20042;-51
2021/11/03 01:25:34;;;;;;;12.57;8.05;;;;;;;7.34;84.78;100001.66;4992207;28;20046;-50
2021/11/03 01:28:03;;;;;;;14.63;8.18;;;;;;;7.36;85.33;99999.47;4992564;28;20066;-49
2021/11/03 01:30:31;;;;;;;9.55;6.80;;;;;;;7.35;84.52;99995.13;4991694;28;20125;-50
2021/11/03 01:33:00;;;;;;;11.43;7.53;;;;;;;7.37;84.28;99995.69;4992630;28;20046;-50
2021/11/03 01:35:30;;;;;;;11.70;7.32;;;;;;;7.40;83.63;99987.00;4988086;28;20126;-50
2021/11/03 01:37:59;;;;;;;10.90;7.00;;;;;;;7.38;83.10;99987.28;4987130;28;20109;-48
2021/11/03 01:40:32;;;;;;;11.80;7.78;;;;;;;7.36;83.66;99983.19;4991191;28;20055;-49
2021/11/03 01:43:01;;;;;;;13.32;7.60;;;;;;;7.33;83.53;99989.16;4991500;28;20074;-50
2021/11/03 01:45:31;;;;;;;11.90;7.68;;;;;;;7.27;82.14;99990.25;4991144;28;20043;-50
2021/11/03 01:48:03;;;;;;;12.45;7.68;;;;;;;7.18;83.27;99987.22;4991598;28;20042;-49
2021/11/03 01:50:38;;;;;;;11.43;7.30;;;;;;;7.16;83.53;99984.78;4990743;28;20096;-50
2021/11/03 01:53:13;;;;;;;10.35;6.85;;;;;;;7.21;84.08;99992.09;5007816;28;20043;-52
2021/11/03 01:55:52;;;;;;;11.77;7.18;;;;;;;7.23;83.71;99979.91;4990910;28;20050;-50
2021/11/03 01:58:27;;;;;;;11.13;7.03;;;;;;;7.25;82.93;99980.47;4990258;28;20050;-50
2021/11/03 02:00:56;;;;;;;9.48;6.72;;;;;;;7.21;83.47;99984.78;4965083;28;20042;-50
2021/11/03 02:03:28;;;;;;;9.57;6.72;;;;;;;7.22;82.96;99988.34;4979526;28;20038;-51
2021/11/03 02:06:09;;;;;;;10.45;6.88;;;;;;;7.20;82.92;99980.47;4991609;28;20065;-51
2021/11/03 02:08:41;;;;;;;10.43;7.13;;;;;;;7.19;83.39;99975.28;4987600;28;20082;-50
2021/11/03 02:11:12;;;;;;;9.75;6.63;;;;;;;7.14;82.53;99980.69;5010692;28;20050;-51
2021/11/03 02:13:41;;;;;;;11.55;7.00;;;;;;;7.12;83.72;99982.84;4995061;28;20141;-47
2021/11/03 02:16:11;;;;;;;11.15;6.63;;;;;;;7.14;83.90;99978.81;4991958;28;20038;-50
2021/11/03 02:18:39;;;;;;;13.55;6.82;;;;;;;7.21;84.75;99973.94;4986900;28;20062;-51
2021/11/03 02:21:09;;;;;;;12.50;7.35;;;;;;;7.22;83.83;99972.88;4994943;28;20048;-49
2021/11/03 02:23:42;;;;;;;11.15;6.93;;;;;;;7.23;84.13;99974.50;5010993;28;20061;-50
2021/11/03 02:26:22;;;;;;;9.93;6.25;;;;;;;7.25;84.88;99964.22;4994526;28;20046;-50
2021/11/03 02:28:50;;;;;;;11.30;6.93;;;;;;;7.28;84.36;99973.69;4995335;28;20089;-50
2021/11/03 02:31:49;;;;;;;11.18;6.57;;;;;;;7.30;84.39;99976.97;4994840;28;20568;-49
2021/11/03 02:34:22;;;;;;;10.65;6.78;;;;;;;7.31;84.94;99977.78;4938520;29;20051;-47
2021/11/03 02:36:53;;;;;;;11.68;6.68;;;;;;;7.30;85.01;99979.66;4938825;29;20047;-48
2021/11/03 02:39:33;;;;;;;11.25;6.90;;;;;;;7.29;85.22;99980.78;4953671;29;20047;-50
2021/11/03 02:42:02;;;;;;;12.13;7.32;;;;;;;7.30;84.58;99970.75;4938880;29;20133;-49
2021/11/03 02:44:32;;;;;;;11.30;6.70;;;;;;;7.28;85.30;99964.78;4922626;29;20072;-50
2021/11/03 02:47:02;;;;;;;10.68;6.80;;;;;;;7.27;84.35;99969.38;4935652;29;20419;-50
2021/11/03 02:49:30;;;;;;;12.88;6.68;;;;;;;7.25;84.49;99966.94;4938594;29;20047;-50
2021/11/03 02:51:58;;;;;;;10.50;6.57;;;;;;;7.25;84.89;99963.41;4938445;29;20051;-47
2021/11/03 02:54:26;;;;;;;10.93;6.22;;;;;;;7.22;83.52;99961.25;4945873;29;20085;-51
2021/11/03 02:56:57;;;;;;;12.80;6.65;;;;;;;7.18;85.06;99963.66;4954290;29;20117;-53
2021/11/03 02:59:26;;;;;;;9.98;6.00;;;;;;;7.21;84.90;99960.41;4935403;29;20035;-49
2021/11/03 03:01:59;;;;;;;12.05;6.30;;;;;;;7.24;84.84;99962.59;4938358;29;20103;-51
2021/11/03 03:04:38;;;;;;;11.60;6.40;;;;;;;7.27;84.66;99965.84;4952611;29;20055;-51
2021/11/03 03:07:08;;;;;;;9.55;6.60;;;;;;;7.25;84.71;99969.63;4934922;29;20055;-51
2021/11/03 03:09:36;;;;;;;12.43;6.50;;;;;;;7.20;83.90;99972.34;4944574;28;20070;-51
2021/11/03 03:12:07;;;;;;;11.00;6.85;;;;;;;7.16;84.60;99976.66;5006520;28;20070;-51
2021/11/03 03:14:41;;;;;;;12.15;6.97;;;;;;;7.05;82.93;99969.59;4993594;28;20050;-49
2021/11/03 03:17:13;;;;;;;13.25;7.53;;;;;;;6.82;82.42;99957.28;4995112;28;20065;-48
2021/11/03 03:19:42;;;;;;;11.07;7.25;;;;;;;6.66;84.36;99971.84;4993752;28;20060;-50
2021/11/03 03:22:12;;;;;;;9.95;6.35;;;;;;;6.69;85.53;99971.34;4994935;28;20050;-49
2021/11/03 03:24:41;;;;;;;9.77;7.15;;;;;;;6.76;85.72;99986.25;4992903;28;20042;-50
2021/11/03 03:27:08;;;;;;;10.48;6.68;;;;;;;6.81;85.31;99988.97;4994846;28;20050;-50
2021/11/03 03:29:37;;;;;;;11.73;7.38;;;;;;;6.87;84.68;99984.41;4993262;28;20138;-49
2021/11/03 03:32:07;;;;;;;12.07;7.65;;;;;;;6.88;84.28;99986.03;4993722;28;20216;-50
2021/11/03 03:34:36;;;;;;;11.40;7.38;;;;;;;6.88;84.11;99980.63;4994269;28;20054;-50
2021/11/03 03:37:04;;;;;;;13.45;7.85;;;;;;;6.87;83.52;99984.41;4993371;28;20050;-50
2021/11/03 03:39:36;;;;;;;11.73;7.35;;;;;;;6.78;83.89;99986.81;4990777;28;20059;-49
2021/11/03 03:42:13;;;;;;;12.35;7.00;;;;;;;6.75;83.85;99987.31;4993781;28;20398;-50
2021/11/03 03:44:44;;;;;;;9.63;6.72;;;;;;;6.79;85.14;99987.63;4993189;28;20149;-47
2021/11/03 03:47:12;;;;;;;9.50;6.93;;;;;;;6.81;84.40;99985.47;4994409;28;20421;-50
2021/11/03 03:49:40;;;;;;;12.02;7.15;;;;;;;6.82;83.17;99978.97;4994018;28;20046;-51
2021/11/03 03:52:10;;;;;;;12.55;7.45;;;;;;;6.73;83.22;99981.34;4993155;28;20043;-50
2021/11/03 03:54:38;;;;;;;10.52;6.47;;;;;;;6.68;83.56;99975.09;4986732;28;20114;-49
2021/11/03 03:57:07;;;;;;;12.13;7.93;;;;;;;6.67;84.19;99989.72;4993009;28;20065;-50
2021/11/03 03:59:36;;;;;;;12.68;7.30;;;;;;;6.70;84.23;99990.00;4989648;28;20047;-49
2021/11/03 04:02:05;;;;;;;12.10;7.20;;;;;;;6.65;83.65;99987.28;5008022;28;20042;-51
2021/11/03 04:04:33;;;;;;;9.85;6.93;;;;;;;6.59;83.96;99988.31;4993641;28;20089;-49
2021/11/03 04:07:01;;;;;;;10.40;6.88;;;;;;;6.58;84.22;99994.81;4993634;28;20436;-48
2021/11/03 04:09:31;;;;;;;10.13;6.68;;;;;;;6.58;83.75;100002.94;4992557;28;20673;-50
2021/11/03 04:11:59;;;;;;;9.15;6.38;;;;;;;6.55;84.47;100003.44;4992701;28;20057;-48
2021/11/03 04:14:28;;;;;;;10.25;7.20;;;;;;;6.54;84.42;99990.97;4992600;28;20413;-50
2021/11/03 04:16:55;;;;;;;13.23;6.97;;;;;;;6.49;83.79;99996.38;4993808;28;20052;-50
2021/11/03 04:19:23;;;;;;;8.82;6.35;;;;;;;6.37;83.36;100000.09;4989126;28;20405;-51
2021/11/03 04:21:54;;;;;;;9.80;6.25;;;;;;;6.30;84.61;99999.50;4988835;28;20057;-50
2021/11/03 04:24:31;;;;;;;10.73;6.72;;;;;;;6.33;84.68;100004.41;4992293;28;20456;-49
2021/11/03 04:26:59;;;;;;;9.32;6.07;;;;;;;6.39;85.74;100011.47;4992744;28;20121;-50
2021/11/03 04:29:27;;;;;;;10.02;6.95;;;;;;;6.50;85.51;100016.97;4992242;28;20050;-48
2021/11/03 04:31:55;;;;;;;9.70;6.60;;;;;;;6.58;84.64;100024.56;4992200;28;20413;-49
2021/11/03 04:34:24;;;;;;;11.75;7.15;;;;;;;6.55;83.42;100020.50;4985677;28;20042;-50
2021/11/03 04:36:56;;;;;;;12.40;7.35;;;;;;;6.41;82.79;100019.31;4985874;28;20397;-50
2021/11/03 04:39:24;;;;;;;9.73;6.13;;;;;;;6.38;84.10;100020.66;4989069;28;20379;-50
2021/11/03 04:41:52;;;;;;;11.13;7.20;;;;;;;6.44;83.49;100028.81;4993600;28;20043;-51
2021/11/03 04:44:20;;;;;;;16.17;6.53;;;;;;;6.44;83.42;100023.41;4993279;28;20053;-46
2021/11/03 04:46:48;;;;;;;9.68;6.03;;;;;;;6.43;83.34;100032.59;4991719;28;20116;-50
2021/11/03 04:49:19;;;;;;;8.18;5.55;;;;;;;6.40;82.70;100029.34;4991906;28;20050;-49
2021/11/03 04:51:52;;;;;;;8.20;5.57;;;;;;;6.31;82.73;100032.78;5007962;28;20070;-47
2021/11/03 04:54:20;;;;;;;10.80;5.82;;;;;;;6.19;82.62;100022.16;4991756;28;20409;-50
2021/11/03 04:56:49;;;;;;;9.50;5.63;;;;;;;6.18;83.88;100025.91;4975237;28;20421;-50
2021/11/03 04:59:18;;;;;;;9.90;5.63;;;;;;;6.20;83.28;100021.06;4991741;28;20488;-47
2021/11/03 05:01:50;;;;;;;8.10;5.20;;;;;;;6.16;82.89;100028.88;4991383;28;20101;-52
2021/11/03 05:04:18;;;;;;;8.75;5.50;;;;;;;6.15;83.08;100029.13;4989092;28;20046;-48
2021/11/03 05:06:48;;;;;;;8.35;5.40;;;;;;;6.18;83.37;100028.59;4987270;28;20058;-50
2021/11/03 05:09:18;;;;;;;8.50;5.40;;;;;;;6.21;82.91;100028.13;4988594;28;20054;-50
2021/11/03 05:11:47;;;;;;;10.43;5.90;;;;;;;6.22;82.05;100027.03;4986500;28;20061;-50
2021/11/03 05:14:15;;;;;;;9.50;6.13;;;;;;;6.13;82.16;100026.72;4988359;28;20457;-50
2021/11/03 05:16:48;;;;;;;9.60;5.57;;;;;;;6.01;82.61;100033.34;4973862;28;20061;-50
2021/11/03 05:19:29;;;;;;;13.25;5.80;;;;;;;5.92;82.54;100036.50;4993926;28;20544;-48
2021/11/03 05:22:07;;;;;;;8.13;5.50;;;;;;;5.85;82.60;100038.59;4991868;28;20049;-50
2021/11/03 05:24:35;;;;;;;9.32;5.90;;;;;;;5.76;82.99;100040.13;4992108;28;20489;-51
2021/11/03 05:27:03;;;;;;;9.13;5.45;;;;;;;5.71;83.51;100048.19;4992694;28;20049;-51
2021/11/03 05:29:31;;;;;;;8.45;5.57;;;;;;;5.74;84.71;100043.06;4992722;28;20398;-49
2021/11/03 05:31:58;;;;;;;9.90;5.55;;;;;;;5.85;84.29;100033.19;4992844;28;20553;-50
2021/11/03 05:34:26;;;;;;;10.70;5.43;;;;;;;5.93;83.34;100040.81;4991261;28;20046;-50
2021/11/03 05:36:54;;;;;;;8.57;5.22;;;;;;;5.92;82.91;100041.91;4992322;28;20040;-51
2021/11/03 05:39:22;;;;;;;10.30;5.82;;;;;;;5.89;82.76;100045.13;4992415;28;20453;-50
2021/11/03 05:41:50;;;;;;;7.88;5.30;;;;;;;5.83;82.59;100040.72;4979353;28;20121;-50
2021/11/03 05:44:19;;;;;;;7.93;5.25;;;;;;;5.78;82.23;100037.97;4992306;28;20576;-46
2021/11/03 05:46:50;;;;;;;8.13;5.18;;;;;;;5.70;82.82;100036.56;4991722;28;20537;-49
2021/11/03 05:49:22;;;;;;;8.73;5.32;;;;;;;5.60;83.07;100041.03;4992379;28;20053;-51
2021/11/03 05:51:52;;;;;;;8.02;5.32;;;;;;;5.55;83.76;100039.09;4992530;28;20440;-50
2021/11/03 05:54:22;;;;;;;7.88;5.22;;;;;;;5.54;84.39;100030.16;4992305;28;20452;-50
2021/11/03 05:56:50;;;;;;;8.48;5.22;;;;;;;5.59;84.53;100028.59;4991020;28;20054;-51
2021/11/03 05:59:18;;;;;;;7.20;4.72;;;;;;;5.63;84.39;100027.00;4992556;28;20054;-50
2021/11/03 06:01:46;;;;;;;8.13;5.10;;;;;;;5.69;84.38;100028.69;4992196;28;20057;-50
2021/11/03 06:04:14;;;;;;;7.43;4.80;;;;;;;5.73;84.37;100019.00;4990773;28;20093;-50
2021/11/03 06:06:43;;;;;;;8.68;5.20;;;;;;;5.73;84.41;100017.13;4991872;28;20101;-50
2021/11/03 06:09:10;;;;;;;6.70;4.80;;;;;;;5.78;84.63;100020.94;4992423;28;20093;-50
2021/11/03 06:11:41;;;;;;;8.18;5.20;;;;;;;5.78;84.20;100015.53;4992666;28;20497;-50
2021/11/03 06:14:11;;;;;;;10.65;5.07;;;;;;;5.81;84.04;100025.84;4991614;28;20497;-52
2021/11/03 06:16:39;;;;;;;9.75;5.30;;;;;;;5.81;83.81;100023.94;4992144;28;20096;-50
2021/11/03 06:19:07;;;;;;;6.72;4.53;;;;;;;5.79;83.46;100017.97;4991974;28;20049;-49
2021/11/03 06:21:35;;;;;;;7.63;5.05;;;;;;;5.79;83.48;100027.97;4992558;28;20100;-49
2021/11/03 06:24:03;;;;;;;9.50;5.03;;;;;;;5.80;83.63;100016.91;4991959;28;20065;-50
2021/11/03 06:26:30;;;;;;;9.52;5.00;;;;;;;5.81;83.50;100013.13;4992070;28;20057;-53
2021/11/03 06:28:59;;;;;;;9.88;5.05;;;;;;;5.83;83.74;100024.50;4644801;28;10000529;-52
2021/11/03 06:31:28;;;;;;;9.13;5.47;;;;;;;5.85;83.96;100016.97;4989999;28;20096;-53
2021/11/03 06:33:57;;;;;;;10.85;5.15;;;;;;;5.81;83.05;100018.53;4989379;28;20039;-51
2021/11/03 06:36:24;;;;;;;11.88;5.80;;;;;;;5.71;83.30;100021.16;4989898;28;20042;-52
2021/11/03 06:38:52;;;;;;;9.10;5.55;;;;;;;5.61;83.82;100016.47;4989776;28;20054;-51
2021/11/03 06:41:20;;;;;;;11.15;6.00;;;;;;;5.55;84.56;100018.28;4989436;28;20035;-49
2021/11/03 06:43:48;;;;;;;10.45;5.38;;;;;;;5.57;84.89;100019.94;4989155;28;20050;-51
2021/11/03 06:46:16;;;;;;;11.52;4.85;;;;;;;5.59;85.48;100023.19;4990754;28;20078;-50
2021/11/03 06:48:44;;;;;;;8.43;5.15;;;;;;;5.63;85.04;100024.28;4993121;28;20043;-50
2021/11/03 06:51:12;;;;;;;9.38;5.55;;;;;;;5.57;84.98;100031.53;4993486;28;20048;-50
2021/11/03 06:53:40;;;;;;;9.38;5.95;;;;;;;5.52;85.37;100037.72;4992833;28;20070;-52
2021/11/03 06:56:08;;;;;;;12.23;5.43;;;;;;;5.58;85.73;100043.16;4993104;28;20047;-49
2021/11/03 06:58:37;;;;;;;10.75;5.53;;;;;;;5.67;85.74;100041.63;4992516;28;20126;-50
2021/11/03 07:01:08;;;;;;;10.80;5.60;;;;;;;5.72;85.00;100050.63;4992846;28;20046;-52
2021/11/03 07:03:38;;;;;;;11.50;5.30;;;;;;;5.72;84.66;100049.78;4992902;28;20394;-50
2021/11/03 07:06:06;;;;;;;11.55;5.63;;;;;;;5.66;84.16;100050.84;4993104;28;20118;-50
2021/11/03 07:08:34;;;;;;;10.10;5.63;;;;;;;5.58;84.90;100048.56;4992498;28;20038;-50
2021/11/03 07:11:02;;;;;;;9.45;4.90;;;;;;;5.56;85.43;100048.84;4992596;28;20706;-50
2021/11/03 07:13:31;;;;;;;8.90;5.45;;;;;;;5.62;85.50;100038.88;4982814;28;20413;-52
2021/11/03 07:15:58;;;;;;;12.32;5.28;;;;;;;5.62;84.64;100044.28;4994581;28;20409;-47
2021/11/03 07:18:26;;;;;;;8.63;5.05;;;;;;;5.52;85.31;100045.81;4993432;28;20101;-47
2021/11/03 07:20:54;;;;;;;8.88;5.38;;;;;;;5.44;85.28;100040.06;4992996;28;20046;-47
2021/11/03 07:23:23;;;;;;;9.38;5.70;;;;;;;5.46;86.30;100035.19;4994400;28;20046;-48
2021/11/03 07:25:53;;;;;;;8.30;5.18;;;;;;;5.52;86.07;100040.41;4994440;28;20505;-46
2021/11/03 07:28:21;;;;;;;10.77;6.15;;;;;;;5.60;86.06;100038.31;4994005;28;20042;-48
2021/11/03 07:30:49;;;;;;;9.63;5.40;;;;;;;5.65;85.78;100043.78;4994515;28;20050;-51
2021/11/03 07:33:17;;;;;;;10.75;5.97;;;;;;;5.68;85.34;100048.69;4994652;28;20050;-52
2021/11/03 07:35:45;;;;;;;12.20;6.10;;;;;;;5.61;84.89;100048.06;4994815;28;20041;-54
2021/11/03 07:38:13;;;;;;;11.52;5.93;;;;;;;5.54;85.47;100040.97;4993971;28;20047;-53
2021/11/03 07:40:54;;;;;;;12.45;6.07;;;;;;;5.57;85.95;100036.94;4994816;28;20047;-54
2021/11/03 07:43:24;;;;;;;11.00;5.88;;;;;;;5.63;86.68;100032.41;4994342;28;20047;-51
2021/11/03 07:45:54;;;;;;;11.63;5.70;;;;;;;5.69;86.57;100034.91;4993771;28;20050;-52
2021/11/03 07:48:25;;;;;;;11.60;5.72;;;;;;;5.73;86.21;100036.03;4994361;28;20476;-50
2021/11/03 07:50:59;;;;;;;9.43;5.68;;;;;;;5.67;86.36;100022.72;4994205;28;20039;-51
2021/11/03 07:53:28;;;;;;;12.07;6.18;;;;;;;5.63;86.72;100032.41;4994635;28;20433;-51
2021/11/03 07:55:59;;;;;;;11.45;6.30;;;;;;;5.65;87.08;100024.88;4994418;28;20046;-50
2021/11/03 07:58:30;;;;;;;12.90;6.70;;;;;;;5.70;87.15;100030.31;5008120;28;20077;-51
2021/11/03 08:00:59;;;;;;;9.93;6.30;;;;;;;5.72;87.17;100038.97;4993316;28;20046;-50
2021/11/03 08:03:27;;;;;;;9.55;5.88;;;;;;;5.74;87.38;100042.25;4994368;28;20101;-51
2021/11/03 08:05:57;;;;;;;11.55;6.05;;;;;;;5.73;87.32;100035.22;4994167;28;20048;-48
2021/11/03 08:08:27;;;;;;;11.48;6.65;;;;;;;5.69;87.44;100034.09;4993411;28;20081;-52
2021/11/03 08:10:56;;;;;;;11.30;6.50;;;;;;;5.71;87.71;100050.88;4992932;28;20058;-52
2021/11/03 08:13:27;;;;;;;10.85;6.63;;;;;;;5.74;88.03;100042.25;4993900;28;20046;-55
2021/11/03 08:15:58;;;;;;;10.50;6.50;;;;;;;5.70;87.63;100047.38;4993474;28;20556;-50
2021/11/03 08:18:34;;;;;;;13.73;6.63;;;;;;;5.67;87.76;100039.75;4994169;28;20409;-52
2021/11/03 08:21:02;;;;;;;12.20;6.80;;;;;;;5.69;88.10;100047.63;5008162;28;20038;-51
2021/11/03 08:23:30;;;;;;;12.43;6.47;;;;;;;5.74;88.50;100050.38;4989516;28;20526;-52
2021/11/03 08:25:57;;;;;;;10.13;6.57;;;;;;;5.74;88.55;100047.66;5005201;28;20129;-52
2021/11/03 08:28:25;;;;;;;13.77;7.32;;;;;;;5.73;89.09;100044.16;4987852;28;20111;-51
2021/11/03 08:30:54;;;;;;;10.93;6.57;;;;;;;5.72;89.07;100045.22;4993460;28;20612;-51
2021/11/03 08:33:30;;;;;;;14.68;6.70;;;;;;;5.66;89.58;100042.72;4979865;28;20073;-51
2021/11/03 08:35:58;;;;;;;10.65;6.63;;;;;;;5.69;90.30;100040.31;4992737;28;20050;-50
2021/11/03 08:38:38;;;;;;;11.38;6.43;;;;;;;5.76;90.27;100040.13;4993305;28;20516;-50
2021/11/03 08:41:06;;;;;;;12.45;6.97;;;;;;;5.75;89.96;100043.91;4992520;28;20535;-51
2021/11/03 08:43:37;;;;;;;10.15;6.53;;;;;;;5.67;90.40;100047.84;4981209;28;20053;-51
2021/11/03 08:46:06;;;;;;;11.55;6.50;;;;;;;5.68;91.33;100051.41;4991898;28;20125;-47
2021/11/03 08:48:47;;;;;;;12.45;6.75;;;;;;;5.82;91.34;100049.91;4982417;28;20050;-51
2021/11/03 08:51:15;;;;;;;10.88;6.93;;;;;;;5.94;91.17;100053.31;4992438;28;20054;-51
2021/11/03 08:53:42;;;;;;;9.93;6.43;;;;;;;6.06;91.02;100055.00;4993040;28;20042;-53
2021/11/03 08:56:10;;;;;;;11.43;6.70;;;;;;;6.13;90.34;100055.63;4992442;28;20378;-50
2021/11/03 08:58:38;;;;;;;10.82;6.75;;;;;;;6.13;90.04;100055.63;4990882;28;20121;-50
2021/11/03 09:01:06;;;;;;;13.85;7.47;;;;;;;6.16;90.78;100055.13;4991860;28;20038;-54
2021/11/03 09:03:39;;;;;;;11.50;7.03;;;;;;;6.17;91.21;100052.16;4992440;28;20045;-51
2021/11/03 09:06:07;;;;;;;13.05;6.35;;;;;;;6.19;91.13;100052.72;4992615;28;20501;-51
2021/11/03 09:08:38;;;;;;;11.40;6.72;;;;;;;6.25;91.59;100061.66;4991962;28;20042;-51
2021/11/03 09:11:07;;;;;;;14.38;7.50;;;;;;;6.30;91.36;100055.47;4990225;28;20085;-52
2021/11/03 09:13:35;;;;;;;15.80;7.50;;;;;;;6.30;91.69;100061.75;4991755;28;20117;-51
2021/11/03 09:16:03;;;;;;;14.48;7.55;;;;;;;6.32;92.12;100064.97;4992445;28;20045;-51
2021/11/03 09:18:32;;;;;;;14.32;8.27;;;;;;;6.36;92.85;100059.88;4992314;28;20053;-50
2021/11/03 09:21:00;;;;;;;11.50;7.60;;;;;;;6.33;93.49;100060.41;4992525;28;20460;-53
2021/11/03 09:23:28;;;;;;;15.15;8.18;;;;;;;6.28;93.41;100068.47;4992648;28;20069;-51
2021/11/03 09:25:56;;;;;;;10.73;7.50;;;;;;;6.25;93.98;100072.50;4991589;28;20038;-51
2021/11/03 09:28:28;;;;;;;13.85;7.50;;;;;;;6.30;94.01;100067.16;4992572;28;20117;-50
2021/11/03 09:30:57;;;;;;;11.35;7.18;;;;;;;6.36;94.67;100074.22;4992527;28;20047;-48
2021/11/03 09:33:25;;;;;;;12.13;7.97;;;;;;;6.40;94.74;100072.63;4991837;28;20484;-51
2021/11/03 09:35:54;;;;;;;11.60;7.80;;;;;;;6.40;94.90;100075.34;4992321;28;20927;-54
2021/11/03 09:38:25;;;;;;;17.05;9.10;;;;;;;6.43;94.89;100082.13;4992145;28;20532;-51
2021/11/03 09:40:57;;;;;;;14.80;8.98;;;;;;;6.44;95.19;100080.22;4991373;28;20066;-51
2021/11/03 09:43:44;;;;;;;13.57;8.63;;;;;;;6.45;95.49;100079.97;5007041;28;20129;-51
2021/11/03 09:46:24;;;;;;;16.13;8.30;;;;;;;6.48;95.74;100074.03;5007307;28;20054;-51
2021/11/03 09:49:09;;;;;;;13.40;7.70;;;;;;;6.55;96.03;100073.81;4980924;28;20054;-50
2021/11/03 09:51:38;;;;;;;11.75;7.45;;;;;;;6.55;96.19;100082.75;4991377;28;20549;-50
2021/11/03 09:54:10;;;;;;;14.70;7.50;;;;;;;6.53;96.17;100076.78;4990576;28;20056;-52
2021/11/03 09:56:42;;;;;;;12.80;7.03;;;;;;;6.54;96.59;100078.44;4990629;28;20038;-50
2021/11/03 09:59:47;;;;;;;12.00;6.93;;;;;;;6.58;97.17;100074.09;5006236;28;20039;-52
2021/11/03 10:02:33;;;;;;;12.55;7.18;;;;;;;6.59;96.50;100083.88;4947273;28;20048;-50
2021/11/03 10:05:20;;;;;;;12.18;7.55;;;;;;;6.58;96.92;100084.13;4934340;29;20114;-52
2021/11/03 10:07:58;;;;;;;;;;;;;;;6.55;97.37;100084.66;4949233;28;20058;-52
2021/11/03 10:10:41;;;;;;;13.13;6.97;;;;;;;6.54;98.16;100083.84;4934272;29;19966;-49
2021/11/03 10:13:21;;;;;;;14.00;7.20;;;;;;;6.58;98.52;100086.81;4948783;28;20051;-49
2021/11/03 10:16:02;;;;;;;11.50;7.20;;;;;;;6.65;98.99;100090.13;4951227;29;20098;-50
2021/11/03 10:18:36;;;;;;;14.23;7.70;;;;;;;6.65;99.06;100087.41;4949887;29;20138;-49
2021/11/03 10:21:21;;;;;;;14.77;7.55;;;;;;;6.68;99.36;100084.19;4952518;28;20046;-49
2021/11/03 10:24:00;;;;;;;15.65;8.70;;;;;;;6.73;99.44;100092.34;4951418;28;20059;-50
2021/11/03 10:26:31;;;;;;;16.73;9.82;;;;;;;6.77;99.09;100082.63;4953183;28;20391;-48
2021/11/03 10:29:16;;;;;;;15.52;10.30;;;;;;;6.82;99.08;100089.97;4954053;29;20040;-50
2021/11/03 10:31:57;;;;;;;13.13;9.23;;;;;;;6.85;98.47;100084.03;4952389;28;20418;-46
2021/11/03 10:34:30;;;;;;;17.15;10.52;;;;;;;6.86;98.77;100080.25;4944777;29;20087;-47
2021/11/03 10:37:15;;;;;;;14.88;11.75;;;;;;;6.68;99.24;100086.88;4933028;28;20076;-47
2021/11/03 10:40:04;;;;;;;15.18;11.35;;;;;;;6.57;100.00;100091.44;4989884;28;20051;-48
2021/11/03 10:42:46;;;;;;;18.70;11.40;;;;;;;6.65;100.00;100084.72;4985235;28;20122;-50
2021/11/03 10:45:35;;;;;;;16.95;11.32;;;;;;;6.72;100.00;100088.00;4991107;28;20042;-47
2021/11/03 10:48:23;;;;;;;18.83;12.10;;;;;;;6.82;100.00;100089.97;4991596;28;20043;-50
2021/11/03 10:51:10;;;;;;;16.17;12.23;;;;;;;6.82;100.00;100084.56;4992917;28;20046;-48
2021/11/03 10:53:38;;;;;;;19.35;13.35;;;;;;;6.78;100.00;100092.41;4994160;28;20042;-47
2021/11/03 10:56:24;;;;;;;15.98;12.68;;;;;;;6.72;100.00;100079.88;4994583;28;20126;-49
2021/11/03 10:58:51;;;;;;;19.77;13.73;;;;;;;6.70;100.00;100087.44;4999915;28;20559;-50
2021/11/03 11:01:27;;;;;;;18.60;12.68;;;;;;;6.75;100.00;100083.97;4994933;28;20528;-49
2021/11/03 11:03:58;;;;;;;19.10;13.60;;;;;;;6.79;100.00;100076.97;4992946;28;20405;-47
2021/11/03 11:06:31;;;;;;;18.58;13.80;;;;;;;6.84;100.00;100082.41;4992192;28;20073;-47
2021/11/03 11:09:08;;;;;;;18.77;13.30;;;;;;;6.85;100.00;100077.81;4993462;28;20125;-50
2021/11/03 11:11:38;;;;;;;20.20;13.38;;;;;;;6.88;100.00;100066.44;4993499;28;20050;-48
2021/11/03 11:14:33;;;;;;;17.90;12.48;;;;;;;6.91;100.00;100066.75;4993545;28;20039;-47
2021/11/03 11:17:05;;;;;;;15.13;11.48;;;;;;;6.88;100.00;100069.97;4991264;28;20088;-50
2021/11/03 11:19:55;;;;;;;20.60;12.15;;;;;;;6.85;100.00;100062.34;5008149;28;20126;-52
2021/11/03 11:22:34;;;;;;;17.65;11.77;;;;;;;6.85;100.00;100067.78;4994152;28;20053;-51
2021/11/03 11:25:13;;;;;;;16.25;11.35;;;;;;;6.88;100.00;100061.03;4989114;28;20413;-50
2021/11/03 11:27:44;;;;;;;17.92;11.80;;;;;;;6.95;100.00;100067.84;4993490;28;20062;-50
2021/11/03 11:30:21;;;;;;;19.15;12.02;;;;;;;6.99;100.00;100049.97;4993853;28;20042;-53
2021/11/03 11:33:39;;;;;;;18.58;11.50;;;;;;;7.01;100.00;100061.38;4990946;28;20041;-48
2021/11/03 11:36:19;;;;;;;17.55;11.85;;;;;;;7.03;100.00;100064.63;4953218;28;20102;-50
2021/11/03 11:39:14;;;;;;;15.75;10.80;;;;;;;7.00;100.00;100067.06;4936521;29;20266;-51
2021/11/03 11:41:57;;;;;;;15.15;11.23;;;;;;;7.00;100.00;100059.75;4952861;29;20109;-51
2021/11/03 11:44:33;;;;;;;16.98;11.40;;;;;;;7.02;100.00;100063.03;4950644;28;20045;-47
2021/11/03 11:47:38;;;;;;;18.05;10.25;;;;;;;7.01;100.00;100060.56;4924872;29;20122;-50